PWSweather.com
Personal Weather Stations
Station Observations
KJ4AJP
Beautiful Downtown Gardner, Martin, TN 38237

Beautiful Downtown GardnerMartin, TN 38237

Lat: 36.358, Lon: -88.8994

Elevation: 384.3

Station Type: TP1080WC

http://weather.mambm.com/

High Low Average
Temperature 27.9°F-2.3°C 14.7°F-9.6°C 21.8°F-5.7°C
Dew Point 21.5°F-5.8°C 11.9°F-11.2°C 18.3°F-7.6°C
Winds 9.8 mph 15.8 kmh Calm Calm 4.0 mph SW6.4 kmh SW
Wind Gusts 18.3 mph29.5 kmh 1.6 mph2.6 kmh 10.0 mph16.1 kmh
Humidity 96% 75% 86%
Pressure 30.64 in1037.6 mb 30.31 in1026.4 mb -
Precipitation 0.09 in2.3 mm - -
Hour Temp Dew Point Humidity Winds Wind Gusts Pressure Precip Precip Rate Daily Precip Total
12:00 AM 20.8°F-6.2°C 19.7°F-6.8°C 95% 3.8 mph N6.1 kmh N 15.9 mph25.6 kmh 30.29 in1025.7 mb 0.00 in0.0 mm 0.00 in0.0 mm 0.13 in3.3 mm
12:15 AM 20.8°F-6.2°C 19.7°F-6.8°C 95% 4.5 mph NNW7.2 kmh NNW 14.5 mph23.3 kmh 30.30 in1026.1 mb 0.00 in0.0 mm 0.00 in0.0 mm 0.13 in3.3 mm
12:30 AM 20.8°F-6.2°C 19.9°F-6.7°C 96% 3.1 mph NNW5.0 kmh NNW 12.1 mph19.5 kmh 30.30 in1026.1 mb 0.00 in0.0 mm 0.00 in0.0 mm 0.13 in3.3 mm
12:45 AM 20.8°F-6.2°C 19.9°F-6.7°C 96% 3.1 mph NNW5.0 kmh NNW 9.8 mph15.8 kmh 30.31 in1026.4 mb 0.00 in0.0 mm 0.00 in0.0 mm 0.13 in3.3 mm
01:00 AM 20.8°F-6.2°C 19.9°F-6.7°C 96% 3.1 mph NNW5.0 kmh NNW 8.3 mph13.4 kmh 30.31 in1026.4 mb 0.00 in0.0 mm 0.00 in0.0 mm 0.00 in0.0 mm
01:15 AM 21.0°F-6.1°C 20.1°F-6.6°C 96% 3.1 mph NNW5.0 kmh NNW 9.2 mph14.8 kmh 30.32 in1026.8 mb 0.00 in0.0 mm 0.00 in0.0 mm 0.00 in0.0 mm
01:30 AM 21.0°F-6.1°C 20.1°F-6.6°C 96% 2.2 mph NNW3.5 kmh NNW 11.4 mph18.3 kmh 30.32 in1026.8 mb 0.00 in0.0 mm 0.00 in0.0 mm 0.00 in0.0 mm
01:45 AM 21.2°F-6.0°C 20.0°F-6.7°C 95% 5.4 mph NNW8.7 kmh NNW 13.0 mph20.9 kmh 30.31 in1026.4 mb 0.00 in0.0 mm 0.00 in0.0 mm 0.00 in0.0 mm
02:00 AM 21.2°F-6.0°C 20.0°F-6.7°C 95% 3.8 mph NNW6.1 kmh NNW 15.2 mph24.5 kmh 30.31 in1026.4 mb 0.00 in0.0 mm 0.00 in0.0 mm 0.00 in0.0 mm
02:15 AM 21.4°F-5.9°C 20.2°F-6.6°C 95% 6.9 mph NNW11.1 kmh NNW 15.9 mph25.6 kmh 30.32 in1026.8 mb 0.00 in0.0 mm 0.00 in0.0 mm 0.00 in0.0 mm
02:30 AM 21.4°F-5.9°C 20.2°F-6.6°C 95% 9.2 mph N14.8 kmh N 15.9 mph25.6 kmh 30.32 in1026.8 mb 0.00 in0.0 mm 0.00 in0.0 mm 0.00 in0.0 mm
02:45 AM 21.4°F-5.9°C 20.0°F-6.7°C 94% 6.0 mph N9.7 kmh N 16.8 mph27.0 kmh 30.33 in1027.1 mb 0.00 in0.0 mm 0.00 in0.0 mm 0.00 in0.0 mm
03:00 AM 21.2°F-6.0°C 19.8°F-6.8°C 94% 3.1 mph NNW5.0 kmh NNW 12.1 mph19.5 kmh 30.34 in1027.4 mb 0.00 in0.0 mm 0.00 in0.0 mm 0.00 in0.0 mm
03:15 AM 21.2°F-6.0°C 19.8°F-6.8°C 94% 2.2 mph NNW3.5 kmh NNW 6.9 mph11.1 kmh 30.35 in1027.8 mb 0.00 in0.0 mm 0.00 in0.0 mm 0.00 in0.0 mm
03:30 AM 21.0°F-6.1°C 19.6°F-6.9°C 94% 0.7 mph N1.1 kmh N 11.4 mph18.3 kmh 30.36 in1028.1 mb 0.00 in0.0 mm 0.00 in0.0 mm 0.00 in0.0 mm
03:45 AM 20.8°F-6.2°C 19.4°F-7.0°C 94% 3.1 mph NNW5.0 kmh NNW 11.4 mph18.3 kmh 30.37 in1028.4 mb 0.00 in0.0 mm 0.00 in0.0 mm 0.00 in0.0 mm
04:00 AM 20.8°F-6.2°C 19.4°F-7.0°C 94% 3.1 mph NNW5.0 kmh NNW 7.6 mph12.2 kmh 30.37 in1028.4 mb 0.00 in0.0 mm 0.00 in0.0 mm 0.00 in0.0 mm
04:15 AM 20.7°F-6.3°C 19.0°F-7.2°C 93% 1.6 mph NNW2.6 kmh NNW 6.9 mph11.1 kmh 30.38 in1028.8 mb 0.00 in0.0 mm 0.00 in0.0 mm 0.00 in0.0 mm
04:30 AM 20.5°F-6.4°C 18.8°F-7.3°C 93% 2.2 mph N3.5 kmh N 10.7 mph17.2 kmh 30.39 in1029.1 mb 0.00 in0.0 mm 0.00 in0.0 mm 0.00 in0.0 mm
04:45 AM 20.5°F-6.4°C 18.8°F-7.3°C 93% 6.9 mph NNW11.1 kmh NNW 14.5 mph23.3 kmh 30.40 in1029.5 mb 0.00 in0.0 mm 0.00 in0.0 mm 0.00 in0.0 mm
05:00 AM 20.3°F-6.5°C 18.6°F-7.4°C 93% 1.6 mph NW2.6 kmh NW 12.1 mph19.5 kmh 30.42 in1030.1 mb 0.00 in0.0 mm 0.00 in0.0 mm 0.00 in0.0 mm
05:15 AM 20.1°F-6.6°C 18.2°F-7.7°C 92% 4.5 mph NNW7.2 kmh NNW 15.9 mph25.6 kmh 30.42 in1030.1 mb 0.00 in0.0 mm 0.00 in0.0 mm 0.00 in0.0 mm
05:30 AM 19.9°F-6.7°C 18.0°F-7.8°C 92% 7.6 mph NNW12.2 kmh NNW 14.5 mph23.3 kmh 30.42 in1030.1 mb 0.00 in0.0 mm 0.00 in0.0 mm 0.00 in0.0 mm
05:45 AM 19.8°F-6.8°C 17.6°F-8.0°C 91% 6.0 mph N9.7 kmh N 14.5 mph23.3 kmh 30.43 in1030.5 mb 0.00 in0.0 mm 0.00 in0.0 mm 0.00 in0.0 mm
06:00 AM 19.6°F-6.9°C 17.7°F-7.9°C 92% 2.2 mph N3.5 kmh N 16.8 mph27.0 kmh 30.44 in1030.8 mb 0.00 in0.0 mm 0.00 in0.0 mm 0.00 in0.0 mm
06:15 AM 19.2°F-7.1°C 17.3°F-8.2°C 92% 7.6 mph NNW12.2 kmh NNW 14.5 mph23.3 kmh 30.45 in1031.2 mb 0.00 in0.0 mm 0.00 in0.0 mm 0.00 in0.0 mm
06:30 AM 19.0°F-7.2°C 17.1°F-8.3°C 92% 9.2 mph N14.8 kmh N 14.5 mph23.3 kmh 30.45 in1031.2 mb 0.00 in0.0 mm 0.00 in0.0 mm 0.00 in0.0 mm
06:45 AM 18.7°F-7.4°C 16.5°F-8.6°C 91% 6.0 mph N9.7 kmh N 15.9 mph25.6 kmh 30.46 in1031.5 mb 0.00 in0.0 mm 0.00 in0.0 mm 0.00 in0.0 mm
07:00 AM 18.3°F-7.6°C 16.2°F-8.8°C 91% 8.3 mph N13.4 kmh N 15.9 mph25.6 kmh 30.46 in1031.5 mb 0.00 in0.0 mm 0.00 in0.0 mm 0.00 in0.0 mm
07:15 AM 18.0°F-7.8°C 16.1°F-8.8°C 92% 6.9 mph N11.1 kmh N 15.9 mph25.6 kmh 30.47 in1031.8 mb 0.00 in0.0 mm 0.00 in0.0 mm 0.00 in0.0 mm
07:30 AM 17.6°F-8.0°C 15.5°F-9.2°C 91% 6.0 mph N9.7 kmh N 13.0 mph20.9 kmh 30.47 in1031.8 mb 0.00 in0.0 mm 0.00 in0.0 mm 0.00 in0.0 mm
07:45 AM 17.4°F-8.1°C 15.5°F-9.2°C 92% 6.9 mph N11.1 kmh N 13.0 mph20.9 kmh 30.49 in1032.5 mb 0.00 in0.0 mm 0.00 in0.0 mm 0.00 in0.0 mm
08:00 AM 17.2°F-8.2°C 15.4°F-9.2°C 92% 5.4 mph N8.7 kmh N 12.1 mph19.5 kmh 30.50 in1032.8 mb 0.00 in0.0 mm 0.00 in0.0 mm 0.00 in0.0 mm
08:15 AM 17.1°F-8.3°C 15.2°F-9.3°C 92% 7.6 mph N12.2 kmh N 12.1 mph19.5 kmh 30.50 in1032.8 mb 0.00 in0.0 mm 0.00 in0.0 mm 0.00 in0.0 mm
08:30 AM 17.1°F-8.3°C 15.2°F-9.3°C 92% 7.6 mph N12.2 kmh N 13.0 mph20.9 kmh 30.51 in1033.2 mb 0.00 in0.0 mm 0.00 in0.0 mm 0.00 in0.0 mm
08:45 AM 17.4°F-8.1°C 15.5°F-9.2°C 92% 5.4 mph N8.7 kmh N 15.2 mph24.5 kmh 30.51 in1033.2 mb 0.00 in0.0 mm 0.00 in0.0 mm 0.00 in0.0 mm
09:00 AM 18.0°F-7.8°C 16.1°F-8.8°C 92% 6.0 mph N9.7 kmh N 15.2 mph24.5 kmh 30.52 in1033.5 mb 0.00 in0.0 mm 0.00 in0.0 mm 0.00 in0.0 mm
09:15 AM 18.3°F-7.6°C 16.4°F-8.7°C 92% 2.2 mph N3.5 kmh N 15.9 mph25.6 kmh 30.52 in1033.5 mb 0.00 in0.0 mm 0.00 in0.0 mm 0.00 in0.0 mm
09:30 AM 19.0°F-7.2°C 17.1°F-8.3°C 92% 3.8 mph N6.1 kmh N 13.6 mph21.9 kmh 30.53 in1033.9 mb 0.00 in0.0 mm 0.00 in0.0 mm 0.00 in0.0 mm
09:45 AM 18.7°F-7.4°C 16.5°F-8.6°C 91% 3.1 mph N5.0 kmh N 16.8 mph27.0 kmh 30.55 in1034.5 mb 0.00 in0.0 mm 0.00 in0.0 mm 0.00 in0.0 mm
10:00 AM 19.2°F-7.1°C 17.1°F-8.3°C 91% 4.5 mph N7.2 kmh N 13.0 mph20.9 kmh 30.55 in1034.5 mb 0.00 in0.0 mm 0.00 in0.0 mm 0.00 in0.0 mm
10:15 AM 19.8°F-6.8°C 17.3°F-8.2°C 90% 5.4 mph N8.7 kmh N 18.3 mph29.5 kmh 30.55 in1034.5 mb 0.00 in0.0 mm 0.00 in0.0 mm 0.00 in0.0 mm
10:30 AM 20.3°F-6.5°C 17.6°F-8.0°C 89% 6.9 mph N11.1 kmh N 13.6 mph21.9 kmh 30.55 in1034.5 mb 0.00 in0.0 mm 0.00 in0.0 mm 0.00 in0.0 mm
10:45 AM 20.7°F-6.3°C 17.7°F-7.9°C 88% 7.6 mph N12.2 kmh N 15.2 mph24.5 kmh 30.55 in1034.5 mb 0.00 in0.0 mm 0.00 in0.0 mm 0.00 in0.0 mm
11:00 AM 21.2°F-6.0°C 18.2°F-7.7°C 88% 3.8 mph NNW6.1 kmh NNW 15.2 mph24.5 kmh 30.56 in1034.9 mb 0.00 in0.0 mm 0.00 in0.0 mm 0.00 in0.0 mm
11:15 AM 21.7°F-5.7°C 18.5°F-7.5°C 87% 6.0 mph N9.7 kmh N 15.9 mph25.6 kmh 30.57 in1035.2 mb 0.00 in0.0 mm 0.00 in0.0 mm 0.00 in0.0 mm
11:30 AM 22.3°F-5.4°C 18.8°F-7.3°C 86% 7.6 mph N12.2 kmh N 13.0 mph20.9 kmh 30.56 in1034.9 mb 0.00 in0.0 mm 0.00 in0.0 mm 0.00 in0.0 mm
11:45 AM 23.0°F-5.0°C 19.2°F-7.1°C 85% 5.4 mph N8.7 kmh N 15.9 mph25.6 kmh 30.57 in1035.2 mb 0.00 in0.0 mm 0.00 in0.0 mm 0.00 in0.0 mm
12:00 PM 23.5°F-4.7°C 19.7°F-6.8°C 85% 9.8 mph N15.8 kmh N 14.5 mph23.3 kmh 30.56 in1034.9 mb 0.00 in0.0 mm 0.00 in0.0 mm 0.00 in0.0 mm
12:15 PM 23.9°F-4.5°C 19.8°F-6.8°C 84% 5.4 mph N8.7 kmh N 15.2 mph24.5 kmh 30.55 in1034.5 mb 0.00 in0.0 mm 0.00 in0.0 mm 0.00 in0.0 mm
12:30 PM 24.8°F-4.0°C 20.4°F-6.4°C 83% 6.0 mph NNE9.7 kmh NNE 12.1 mph19.5 kmh 30.56 in1034.9 mb 0.00 in0.0 mm 0.00 in0.0 mm 0.00 in0.0 mm
12:45 PM 25.2°F-3.8°C 20.2°F-6.6°C 81% 4.5 mph NE7.2 kmh NE 10.7 mph17.2 kmh 30.55 in1034.5 mb 0.00 in0.0 mm 0.00 in0.0 mm 0.00 in0.0 mm
01:00 PM 25.5°F-3.6°C 20.5°F-6.4°C 81% 4.5 mph N7.2 kmh N 15.9 mph25.6 kmh 30.55 in1034.5 mb 0.00 in0.0 mm 0.00 in0.0 mm 0.00 in0.0 mm
01:15 PM 25.9°F-3.4°C 20.6°F-6.3°C 80% 6.0 mph N9.7 kmh N 13.6 mph21.9 kmh 30.54 in1034.2 mb 0.00 in0.0 mm 0.00 in0.0 mm 0.00 in0.0 mm
01:30 PM 26.1°F-3.3°C 20.8°F-6.2°C 80% 3.8 mph N6.1 kmh N 10.7 mph17.2 kmh 30.54 in1034.2 mb 0.02 in0.5 mm 0.08 in2.0 mm 0.02 in0.5 mm
01:45 PM 26.8°F-2.9°C 21.5°F-5.8°C 80% 3.8 mph N6.1 kmh N 9.8 mph15.8 kmh 30.53 in1033.9 mb 0.05 in1.3 mm 0.12 in3.0 mm 0.05 in1.3 mm
02:00 PM 27.1°F-2.7°C 21.5°F-5.8°C 79% 6.0 mph N9.7 kmh N 10.7 mph17.2 kmh 30.53 in1033.9 mb 0.07 in1.8 mm 0.03 in0.8 mm 0.07 in1.8 mm
02:15 PM 27.0°F-2.8°C 21.0°F-6.1°C 78% 5.4 mph N8.7 kmh N 10.7 mph17.2 kmh 30.53 in1033.9 mb 0.09 in2.3 mm 0.08 in2.0 mm 0.09 in2.3 mm
02:30 PM 27.5°F-2.5°C 21.3°F-5.9°C 77% 6.0 mph N9.7 kmh N 10.7 mph17.2 kmh 30.54 in1034.2 mb 0.07 in1.8 mm 0.00 in0.0 mm 0.09 in2.3 mm
02:45 PM 27.5°F-2.5°C 21.3°F-5.9°C 77% 2.2 mph NW3.5 kmh NW 9.8 mph15.8 kmh 30.53 in1033.9 mb 0.05 in1.3 mm 0.00 in0.0 mm 0.09 in2.3 mm
03:00 PM 27.5°F-2.5°C 21.0°F-6.1°C 76% 3.8 mph N6.1 kmh N 12.1 mph19.5 kmh 30.53 in1033.9 mb 0.02 in0.5 mm 0.00 in0.0 mm 0.09 in2.3 mm
03:15 PM 27.7°F-2.4°C 21.4°F-5.9°C 77% 0.7 mph NW1.1 kmh NW 6.9 mph11.1 kmh 30.54 in1034.2 mb 0.00 in0.0 mm 0.00 in0.0 mm 0.09 in2.3 mm
03:30 PM 27.9°F-2.3°C 21.3°F-5.9°C 76% 4.5 mph NW7.2 kmh NW 9.2 mph14.8 kmh 30.54 in1034.2 mb 0.00 in0.0 mm 0.00 in0.0 mm 0.09 in2.3 mm
03:45 PM 27.9°F-2.3°C 21.3°F-5.9°C 76% 7.6 mph N12.2 kmh N 11.4 mph18.3 kmh 30.55 in1034.5 mb 0.00 in0.0 mm 0.00 in0.0 mm 0.09 in2.3 mm
04:00 PM 27.9°F-2.3°C 21.3°F-5.9°C 76% 7.6 mph N12.2 kmh N 11.4 mph18.3 kmh 30.55 in1034.5 mb 0.00 in0.0 mm 0.00 in0.0 mm 0.09 in2.3 mm
04:15 PM 27.0°F-2.8°C 20.1°F-6.6°C 75% 5.4 mph NW8.7 kmh NW 9.2 mph14.8 kmh 30.56 in1034.9 mb 0.00 in0.0 mm 0.00 in0.0 mm 0.09 in2.3 mm
04:30 PM 26.6°F-3.0°C 20.1°F-6.6°C 76% 3.8 mph NNW6.1 kmh NNW 13.0 mph20.9 kmh 30.57 in1035.2 mb 0.00 in0.0 mm 0.00 in0.0 mm 0.09 in2.3 mm
04:45 PM 26.2°F-3.2°C 19.7°F-6.8°C 76% 3.1 mph NNW5.0 kmh NNW 6.9 mph11.1 kmh 30.57 in1035.2 mb 0.00 in0.0 mm 0.00 in0.0 mm 0.09 in2.3 mm
05:00 PM 26.2°F-3.2°C 19.7°F-6.8°C 76% 1.6 mph NW2.6 kmh NW 7.6 mph12.2 kmh 30.57 in1035.2 mb 0.00 in0.0 mm 0.00 in0.0 mm 0.09 in2.3 mm
05:15 PM 26.1°F-3.3°C 19.6°F-6.9°C 76% 3.1 mph NNW5.0 kmh NNW 9.8 mph15.8 kmh 30.57 in1035.2 mb 0.00 in0.0 mm 0.00 in0.0 mm 0.09 in2.3 mm
05:30 PM 25.3°F-3.7°C 18.9°F-7.3°C 76% 3.8 mph N6.1 kmh N 8.3 mph13.4 kmh 30.58 in1035.6 mb 0.00 in0.0 mm 0.00 in0.0 mm 0.09 in2.3 mm
05:45 PM 24.6°F-4.1°C 18.8°F-7.3°C 78% 2.2 mph N3.5 kmh N 6.0 mph9.7 kmh 30.58 in1035.6 mb 0.00 in0.0 mm 0.00 in0.0 mm 0.09 in2.3 mm
06:00 PM 23.9°F-4.5°C 18.4°F-7.6°C 79% 0.7 mph NNW1.1 kmh NNW 4.5 mph7.2 kmh 30.58 in1035.6 mb 0.00 in0.0 mm 0.00 in0.0 mm 0.09 in2.3 mm
06:15 PM 23.7°F-4.6°C 18.5°F-7.5°C 80% 2.2 mph N3.5 kmh N 4.5 mph7.2 kmh 30.59 in1035.9 mb 0.00 in0.0 mm 0.00 in0.0 mm 0.09 in2.3 mm
06:30 PM 23.4°F-4.8°C 18.1°F-7.7°C 80% 0.7 mph NNW1.1 kmh NNW 5.4 mph8.7 kmh 30.60 in1036.2 mb 0.00 in0.0 mm 0.00 in0.0 mm 0.09 in2.3 mm
06:45 PM 23.2°F-4.9°C 18.3°F-7.6°C 81% 0.7 mph NNW1.1 kmh NNW 4.5 mph7.2 kmh 30.60 in1036.2 mb 0.00 in0.0 mm 0.00 in0.0 mm 0.09 in2.3 mm
07:00 PM 23.0°F-5.0°C 18.4°F-7.6°C 82% 1.6 mph N2.6 kmh N 4.5 mph7.2 kmh 30.59 in1035.9 mb 0.00 in0.0 mm 0.00 in0.0 mm 0.09 in2.3 mm
07:15 PM 22.6°F-5.2°C 18.0°F-7.8°C 82% 1.6 mph N2.6 kmh N 4.5 mph7.2 kmh 30.59 in1035.9 mb 0.00 in0.0 mm 0.00 in0.0 mm 0.09 in2.3 mm
07:30 PM 22.3°F-5.4°C 17.9°F-7.8°C 83% 0.7 mph N1.1 kmh N 3.8 mph6.1 kmh 30.61 in1036.6 mb 0.00 in0.0 mm 0.00 in0.0 mm 0.09 in2.3 mm
07:45 PM 21.9°F-5.6°C 17.6°F-8.0°C 83% Calm Calm 1.6 mph2.6 kmh 30.61 in1036.6 mb 0.00 in0.0 mm 0.00 in0.0 mm 0.09 in2.3 mm
08:00 PM 21.6°F-5.8°C 17.5°F-8.1°C 84% Calm Calm 3.8 mph6.1 kmh 30.61 in1036.6 mb 0.00 in0.0 mm 0.00 in0.0 mm 0.09 in2.3 mm
08:15 PM 21.6°F-5.8°C 17.8°F-7.9°C 85% 1.6 mph N2.6 kmh N 3.8 mph6.1 kmh 30.61 in1036.6 mb 0.00 in0.0 mm 0.00 in0.0 mm 0.09 in2.3 mm
08:30 PM 21.7°F-5.7°C 18.0°F-7.8°C 85% 2.2 mph N3.5 kmh N 4.5 mph7.2 kmh 30.62 in1036.9 mb 0.00 in0.0 mm 0.00 in0.0 mm 0.09 in2.3 mm
08:45 PM 21.9°F-5.6°C 18.1°F-7.7°C 85% 2.2 mph N3.5 kmh N 5.4 mph8.7 kmh 30.62 in1036.9 mb 0.00 in0.0 mm 0.00 in0.0 mm 0.09 in2.3 mm
09:00 PM 22.1°F-5.5°C 18.3°F-7.6°C 85% 0.7 mph N1.1 kmh N 4.5 mph7.2 kmh 30.62 in1036.9 mb 0.00 in0.0 mm 0.00 in0.0 mm 0.09 in2.3 mm
09:15 PM 22.1°F-5.5°C 18.3°F-7.6°C 85% 0.7 mph N1.1 kmh N 4.5 mph7.2 kmh 30.62 in1036.9 mb 0.00 in0.0 mm 0.00 in0.0 mm 0.09 in2.3 mm
09:30 PM 22.3°F-5.4°C 18.5°F-7.5°C 85% 1.6 mph NNE2.6 kmh NNE 4.5 mph7.2 kmh 30.63 in1037.3 mb 0.00 in0.0 mm 0.00 in0.0 mm 0.09 in2.3 mm
09:45 PM 22.3°F-5.4°C 18.5°F-7.5°C 85% 2.2 mph N3.5 kmh N 5.4 mph8.7 kmh 30.63 in1037.3 mb 0.00 in0.0 mm 0.00 in0.0 mm 0.09 in2.3 mm
10:00 PM 22.3°F-5.4°C 18.2°F-7.7°C 84% 1.6 mph NNE2.6 kmh NNE 7.6 mph12.2 kmh 30.63 in1037.3 mb 0.00 in0.0 mm 0.00 in0.0 mm 0.09 in2.3 mm
10:15 PM 22.1°F-5.5°C 17.8°F-7.9°C 83% Calm Calm 5.4 mph8.7 kmh 30.63 in1037.3 mb 0.00 in0.0 mm 0.00 in0.0 mm 0.09 in2.3 mm
10:30 PM 21.9°F-5.6°C 17.9°F-7.8°C 84% Calm Calm 4.5 mph7.2 kmh 30.63 in1037.3 mb 0.00 in0.0 mm 0.00 in0.0 mm 0.09 in2.3 mm
10:45 PM 21.4°F-5.9°C 17.3°F-8.2°C 84% 0.7 mph NE1.1 kmh NE 5.4 mph8.7 kmh 30.63 in1037.3 mb 0.00 in0.0 mm 0.00 in0.0 mm 0.09 in2.3 mm
11:00 PM 20.8°F-6.2°C 16.8°F-8.4°C 84% Calm Calm 3.8 mph6.1 kmh 30.63 in1037.3 mb 0.00 in0.0 mm 0.00 in0.0 mm 0.09 in2.3 mm
11:15 PM 19.9°F-6.7°C 16.2°F-8.8°C 85% 1.6 mph NE2.6 kmh NE 4.5 mph7.2 kmh 30.63 in1037.3 mb 0.00 in0.0 mm 0.00 in0.0 mm 0.09 in2.3 mm
11:30 PM 18.7°F-7.4°C 15.0°F-9.4°C 85% 0.7 mph N1.1 kmh N 3.1 mph5.0 kmh 30.64 in1037.6 mb 0.00 in0.0 mm 0.00 in0.0 mm 0.09 in2.3 mm
11:45 PM 17.6°F-8.0°C 13.9°F-10.1°C 85% 0.7 mph NNE1.1 kmh NNE 3.8 mph6.1 kmh 30.64 in1037.6 mb 0.00 in0.0 mm 0.00 in0.0 mm 0.09 in2.3 mm